Time;durP1;ratioP1;P1;durP2;ratioP2;P2;SDS_P1;SDS_P2;PMS_P1;PMS_P2;Temp;Humidity;BMP_temperature;BMP_pressure;BME280_temperature;BME280_humidity;BME280_pressure;Samples;Min_cycle;Max_cycle;Signal;HPM_P1;HPM_P2
2024/04/06 00:01:59;;;;;;;2.00;1.13;;;;;;;13.61;100.00;100716.53;5106119;28;20426;-69
2024/04/06 00:04:25;;;;;;;2.70;1.70;;;;;;;13.62;100.00;100723.63;5110592;28;20458;-68
2024/04/06 00:06:53;;;;;;;1.70;1.10;;;;;;;13.81;100.00;100725.28;5108494;28;20487;-69
2024/04/06 00:09:20;;;;;;;1.90;1.30;;;;;;;13.71;100.00;100719.56;5110696;28;20432;-67
2024/04/06 00:11:49;;;;;;;1.37;1.23;;;;;;;13.81;100.00;100728.00;5110075;28;20447;-69
2024/04/06 00:14:17;;;;;;;1.40;1.00;;;;;;;13.86;100.00;100733.59;5109954;28;20433;-68
2024/04/06 00:16:45;;;;;;;1.30;0.87;;;;;;;13.83;100.00;100729.47;5107134;28;20469;-67
2024/04/06 00:19:12;;;;;;;1.90;1.43;;;;;;;13.93;100.00;100731.66;5107158;28;20415;-68
2024/04/06 00:21:40;;;;;;;10.23;1.70;;;;;;;14.04;100.00;100739.03;5110586;28;20426;-70
2024/04/06 00:24:07;;;;;;;1.30;1.07;;;;;;;13.99;100.00;100738.88;5108817;28;20448;-69
2024/04/06 00:26:34;;;;;;;1.30;0.80;;;;;;;14.00;100.00;100728.81;5106579;28;20431;-68
2024/04/06 00:29:03;;;;;;;4.00;1.53;;;;;;;14.08;100.00;100732.09;5108880;28;20442;-69
2024/04/06 00:31:30;;;;;;;1.47;1.37;;;;;;;13.93;100.00;100728.94;5105583;28;20928;-66
2024/04/06 00:34:01;;;;;;;1.40;1.20;;;;;;;13.97;100.00;100721.13;5107252;28;20406;-69
2024/04/06 00:36:29;;;;;;;1.70;1.23;;;;;;;13.89;100.00;100720.38;5110194;28;20841;-67
2024/04/06 00:39:00;;;;;;;2.10;1.17;;;;;;;13.79;100.00;100728.25;5109917;28;20421;-69
2024/04/06 00:41:28;;;;;;;1.73;1.43;;;;;;;13.72;100.00;100726.66;5105160;28;20471;-68
2024/04/06 00:43:54;;;;;;;1.60;0.90;;;;;;;13.57;100.00;100729.75;5091673;28;20981;-68
2024/04/06 00:46:24;;;;;;;1.60;1.03;;;;;;;13.41;100.00;100728.44;5107224;28;20414;-68
2024/04/06 00:48:52;;;;;;;1.90;1.40;;;;;;;13.38;100.00;100730.78;5110041;28;20425;-69
2024/04/06 00:51:19;;;;;;;1.60;1.50;;;;;;;13.29;100.00;100732.97;5104680;28;20440;-68
2024/04/06 00:53:47;;;;;;;1.90;1.40;;;;;;;13.13;100.00;100728.09;5107458;28;20439;-67
2024/04/06 00:56:13;;;;;;;6.53;2.13;;;;;;;13.04;100.00;100734.84;5107306;28;20424;-68
2024/04/06 00:58:42;;;;;;;2.90;1.43;;;;;;;12.96;100.00;100730.53;5107345;28;20794;-69
2024/04/06 01:01:11;;;;;;;1.10;0.90;;;;;;;12.96;100.00;100735.13;5105113;28;20488;-68
2024/04/06 01:03:40;;;;;;;9.47;1.47;;;;;;;12.91;100.00;100735.78;5108506;28;20896;-69
2024/04/06 01:06:07;;;;;;;2.50;2.03;;;;;;;12.97;100.00;100736.78;5103724;28;20411;-69
2024/04/06 01:08:37;;;;;;;1.83;1.00;;;;;;;13.04;100.00;100730.25;5104461;28;20804;-67
2024/04/06 01:11:04;;;;;;;1.40;1.10;;;;;;;13.00;100.00;100733.63;5105737;28;20437;-69
2024/04/06 01:13:32;;;;;;;1.47;1.10;;;;;;;12.90;100.00;100734.13;5105412;28;20773;-69
2024/04/06 01:15:59;;;;;;;1.83;1.40;;;;;;;12.88;100.00;100740.81;5105059;28;20443;-69
2024/04/06 01:18:26;;;;;;;2.27;1.87;;;;;;;12.86;100.00;100745.66;5109736;28;20931;-68
2024/04/06 01:20:57;;;;;;;4.10;2.30;;;;;;;12.85;100.00;100757.56;5112030;28;20447;-69
2024/04/06 01:23:25;;;;;;;2.40;1.73;;;;;;;12.80;100.00;100760.94;5114235;28;20407;-69
2024/04/06 01:25:53;;;;;;;4.10;1.80;;;;;;;12.84;100.00;100758.59;5112119;28;20789;-69
2024/04/06 01:28:20;;;;;;;2.13;1.57;;;;;;;12.85;100.00;100763.00;5102198;28;20399;-69
2024/04/06 01:30:47;;;;;;;2.30;1.53;;;;;;;12.83;100.00;100770.53;5105198;28;20966;-69
2024/04/06 01:33:15;;;;;;;1.60;1.40;;;;;;;12.79;100.00;100769.28;5111233;28;20466;-69
2024/04/06 01:35:42;;;;;;;3.10;0.90;;;;;;;12.79;100.00;100772.00;5112203;28;20406;-68
2024/04/06 01:38:10;;;;;;;1.60;1.20;;;;;;;12.75;100.00;100779.75;5107916;28;20437;-69
2024/04/06 01:40:37;;;;;;;2.70;1.03;;;;;;;12.83;100.00;100782.22;5113145;28;20876;-67
2024/04/06 01:43:06;;;;;;;1.97;1.50;;;;;;;12.81;100.00;100788.94;5113353;28;20460;-68
2024/04/06 01:45:34;;;;;;;3.73;2.70;;;;;;;12.85;100.00;100792.84;5113830;28;20571;-68
2024/04/06 01:48:05;;;;;;;2.83;1.90;;;;;;;12.80;100.00;100792.69;5108105;28;20400;-68
2024/04/06 01:50:31;;;;;;;1.97;1.40;;;;;;;12.85;100.00;100801.00;5111572;28;20432;-68
2024/04/06 01:52:59;;;;;;;4.43;2.73;;;;;;;12.84;100.00;100802.06;5105251;28;20414;-68
2024/04/06 01:55:26;;;;;;;3.30;1.40;;;;;;;12.95;100.00;100801.34;5110906;28;20444;-69
2024/04/06 01:57:57;;;;;;;4.10;1.57;;;;;;;12.90;100.00;100799.31;5112130;28;20467;-68
2024/04/06 02:00:25;;;;;;;1.93;1.13;;;;;;;12.84;100.00;100796.63;5102368;28;20472;-69
2024/04/06 02:02:53;;;;;;;5.83;2.00;;;;;;;12.97;100.00;100800.06;5113440;28;20439;-68
2024/04/06 02:05:20;;;;;;;3.20;1.97;;;;;;;12.93;100.00;100808.88;5110723;28;20418;-69
2024/04/06 02:07:48;;;;;;;2.60;2.40;;;;;;;13.15;100.00;100796.66;5112631;28;20421;-68
2024/04/06 02:10:15;;;;;;;2.23;1.53;;;;;;;13.14;100.00;100803.13;5113943;28;20805;-68
2024/04/06 02:12:43;;;;;;;2.70;1.40;;;;;;;13.18;100.00;100801.63;5104670;28;20404;-67
2024/04/06 02:15:10;;;;;;;1.57;1.40;;;;;;;13.29;100.00;100814.50;5108659;28;20405;-69
2024/04/06 02:17:39;;;;;;;1.00;0.90;;;;;;;13.27;100.00;100815.75;5112867;28;20953;-68
2024/04/06 02:20:07;;;;;;;2.23;1.50;;;;;;;13.32;100.00;100808.59;5108603;28;20438;-70
2024/04/06 02:22:35;;;;;;;1.50;1.23;;;;;;;13.24;100.00;100808.91;5112857;28;20815;-69
2024/04/06 02:25:03;;;;;;;1.70;1.10;;;;;;;13.28;100.00;100801.13;5108682;28;20432;-69
2024/04/06 02:27:32;;;;;;;1.97;1.57;;;;;;;13.14;100.00;100800.41;5108861;28;20843;-68
2024/04/06 02:29:58;;;;;;;1.43;1.00;;;;;;;13.10;100.00;100799.16;5114303;28;21684;-69
2024/04/06 02:32:28;;;;;;;1.00;0.80;;;;;;;12.99;100.00;100808.00;5114149;28;20454;-69
2024/04/06 02:34:56;;;;;;;2.50;1.83;;;;;;;12.94;100.00;100805.13;5115231;28;20399;-68
2024/04/06 02:37:24;;;;;;;4.13;2.17;;;;;;;12.95;100.00;100801.34;5117138;28;20432;-69
2024/04/06 02:39:51;;;;;;;2.00;1.27;;;;;;;13.05;100.00;100794.38;5115630;28;20916;-68
2024/04/06 02:42:19;;;;;;;2.10;1.40;;;;;;;12.94;100.00;100799.69;5114016;28;20408;-68
2024/04/06 02:44:46;;;;;;;2.80;1.63;;;;;;;12.90;100.00;100803.91;5110825;28;20425;-68
2024/04/06 02:47:14;;;;;;;3.43;1.10;;;;;;;12.88;100.00;100806.00;5112245;28;20403;-69
2024/04/06 02:49:41;;;;;;;2.27;1.23;;;;;;;12.79;100.00;100813.56;5110909;28;20449;-69
2024/04/06 02:52:11;;;;;;;1.37;1.20;;;;;;;12.79;100.00;100804.59;5104861;28;20399;-70
2024/04/06 02:54:38;;;;;;;1.33;1.17;;;;;;;12.86;100.00;100791.81;5113046;28;20407;-69
2024/04/06 02:57:06;;;;;;;1.40;1.10;;;;;;;12.81;100.00;100794.34;5111866;28;20403;-70
2024/04/06 02:59:33;;;;;;;1.20;1.10;;;;;;;12.94;100.00;100799.69;5107424;28;20429;-70
2024/04/06 03:02:01;;;;;;;2.80;1.80;;;;;;;12.84;100.00;100794.75;5110059;28;20435;-67
2024/04/06 03:04:28;;;;;;;2.33;1.40;;;;;;;12.89;100.00;100799.50;5108445;28;20485;-69
2024/04/06 03:06:56;;;;;;;1.77;1.07;;;;;;;12.83;100.00;100797.69;5110695;28;20432;-69
2024/04/06 03:09:24;;;;;;;1.00;0.70;;;;;;;12.87;100.00;100804.34;5102527;28;20429;-69
2024/04/06 03:11:52;;;;;;;1.87;1.30;;;;;;;12.85;100.00;100823.56;5102188;28;20445;-69
2024/04/06 03:14:19;;;;;;;3.97;0.70;;;;;;;12.83;100.00;100822.13;5106823;28;20399;-67
2024/04/06 03:16:47;;;;;;;1.00;0.87;;;;;;;12.94;100.00;100824.97;5109000;28;20391;-69
2024/04/06 03:19:14;;;;;;;1.10;0.90;;;;;;;13.01;100.00;100824.94;5109833;28;20750;-68
2024/04/06 03:21:41;;;;;;;4.50;1.50;;;;;;;13.00;100.00;100821.38;5106906;28;20438;-70
2024/04/06 03:24:08;;;;;;;1.90;1.57;;;;;;;13.10;100.00;100820.91;5113664;28;20418;-69
2024/04/06 03:26:38;;;;;;;2.30;2.10;;;;;;;13.08;100.00;100815.66;5113202;28;20417;-68
2024/04/06 03:29:04;;;;;;;1.40;1.20;;;;;;;13.29;100.00;100822.66;5102752;28;20441;-69
2024/04/06 03:31:32;;;;;;;1.47;0.93;;;;;;;13.42;100.00;100817.09;5107618;28;20703;-69
2024/04/06 03:33:59;;;;;;;1.60;0.93;;;;;;;13.33;100.00;100817.59;5112764;28;20428;-69
2024/04/06 03:36:27;;;;;;;2.63;2.33;;;;;;;13.18;100.00;100823.38;5091780;28;20411;-69
2024/04/06 03:38:55;;;;;;;1.77;1.37;;;;;;;13.15;100.00;100823.81;5103034;28;20757;-69
2024/04/06 03:41:23;;;;;;;4.13;1.07;;;;;;;13.13;100.00;100825.91;5109480;28;20458;-70
2024/04/06 03:43:53;;;;;;;4.50;1.23;;;;;;;13.11;100.00;100829.88;5109283;28;20443;-70
2024/04/06 03:46:19;;;;;;;2.73;1.30;;;;;;;13.04;100.00;100827.19;5108954;28;20433;-70
2024/04/06 03:48:47;;;;;;;1.93;0.90;;;;;;;12.98;100.00;100828.06;5117156;28;20414;-68
2024/04/06 03:51:14;;;;;;;2.90;2.03;;;;;;;13.05;100.00;100820.72;5119459;28;20415;-69
2024/04/06 03:53:43;;;;;;;1.10;0.73;;;;;;;12.98;100.00;100823.47;5117845;28;20428;-69
2024/04/06 03:56:10;;;;;;;2.30;1.10;;;;;;;12.96;100.00;100822.03;5106702;28;20407;-68
2024/04/06 03:58:38;;;;;;;3.20;1.33;;;;;;;12.97;100.00;100819.09;5114136;28;20420;-68
2024/04/06 04:01:06;;;;;;;1.33;1.20;;;;;;;13.00;100.00;100821.38;5113602;28;20544;-67
2024/04/06 04:03:34;;;;;;;1.13;0.90;;;;;;;13.00;100.00;100813.22;5113413;28;20436;-69
2024/04/06 04:06:04;;;;;;;1.10;0.70;;;;;;;12.91;100.00;100813.72;5109559;28;20414;-69
2024/04/06 04:08:32;;;;;;;2.50;1.27;;;;;;;12.86;100.00;100813.53;5116658;28;20447;-69
2024/04/06 04:10:59;;;;;;;2.17;1.10;;;;;;;12.82;100.00;100820.47;5112591;28;20476;-69
2024/04/06 04:13:27;;;;;;;2.10;1.80;;;;;;;12.80;100.00;100814.41;5109394;28;20416;-70
2024/04/06 04:15:54;;;;;;;3.37;1.13;;;;;;;12.71;100.00;100815.72;5115599;28;20431;-69
2024/04/06 04:18:24;;;;;;;1.60;0.87;;;;;;;12.77;100.00;100815.69;5116558;28;20421;-69
2024/04/06 04:20:51;;;;;;;2.13;1.27;;;;;;;12.78;100.00;100833.63;5112587;28;20861;-69
2024/04/06 04:23:19;;;;;;;2.20;1.37;;;;;;;12.82;100.00;100834.03;5111863;28;20399;-68
2024/04/06 04:25:46;;;;;;;1.30;0.73;;;;;;;12.81;100.00;100835.09;5111419;28;20431;-69
2024/04/06 04:28:14;;;;;;;1.00;0.80;;;;;;;12.74;100.00;100834.28;5110910;28;20428;-69
2024/04/06 04:30:41;;;;;;;1.73;0.93;;;;;;;12.71;100.00;100842.88;5111391;28;20509;-70
2024/04/06 04:33:09;;;;;;;1.53;1.30;;;;;;;12.68;100.00;100843.31;5111783;28;20398;-69
2024/04/06 04:35:37;;;;;;;1.83;1.17;;;;;;;12.83;100.00;100838.44;5117898;28;20410;-69
2024/04/06 04:38:05;;;;;;;1.10;1.00;;;;;;;12.81;100.00;100845.94;5110531;28;20411;-68
2024/04/06 04:40:32;;;;;;;1.30;1.20;;;;;;;12.76;100.00;100835.75;5107767;28;20829;-68
2024/04/06 04:43:00;;;;;;;1.60;1.20;;;;;;;12.76;100.00;100832.19;5113696;28;20399;-70
2024/04/06 04:45:27;;;;;;;2.07;0.70;;;;;;;12.80;100.00;100825.28;5113969;28;20432;-68
2024/04/06 04:47:55;;;;;;;1.30;1.20;;;;;;;12.85;100.00;100822.72;5116844;28;20454;-68
2024/04/06 04:50:22;;;;;;;1.37;1.27;;;;;;;12.83;100.00;100827.56;5112466;28;20981;-69
2024/04/06 04:52:52;;;;;;;1.57;1.23;;;;;;;12.89;100.00;100826.66;5113469;28;20904;-68
2024/04/06 04:55:19;;;;;;;1.50;1.40;;;;;;;12.95;100.00;100833.94;5111440;28;20429;-68
2024/04/06 04:57:47;;;;;;;1.83;1.73;;;;;;;12.91;100.00;100828.13;5114173;28;20402;-68
2024/04/06 05:00:14;;;;;;;1.90;1.70;;;;;;;13.02;100.00;100834.75;5109095;28;20427;-69
2024/04/06 05:02:42;;;;;;;2.70;1.43;;;;;;;13.05;100.00;100831.59;5115034;28;20439;-69
2024/04/06 05:05:09;;;;;;;1.27;1.07;;;;;;;13.13;100.00;100834.06;5106093;28;20407;-70
2024/04/06 05:07:37;;;;;;;1.40;1.17;;;;;;;13.41;100.00;100834.47;5096797;28;20481;-70
2024/04/06 05:10:09;;;;;;;3.60;1.47;;;;;;;13.91;100.00;100831.69;5113178;28;20434;-68
2024/04/06 05:12:37;;;;;;;5.80;1.93;;;;;;;14.54;100.00;100840.38;5093404;28;20411;-69
2024/04/06 05:15:05;;;;;;;3.03;1.97;;;;;;;14.83;100.00;100844.19;5114123;28;20764;-67
2024/04/06 05:17:34;;;;;;;2.13;1.53;;;;;;;15.09;100.00;100851.16;5109329;28;20395;-68
2024/04/06 05:20:02;;;;;;;2.50;1.20;;;;;;;15.11;100.00;100858.03;5108915;28;20426;-69
2024/04/06 05:22:30;;;;;;;1.27;1.17;;;;;;;14.86;100.00;100860.09;5109454;28;20459;-68
2024/04/06 05:24:57;;;;;;;1.47;1.37;;;;;;;14.79;100.00;100864.78;5113985;28;20426;-68
2024/04/06 05:27:26;;;;;;;2.83;1.30;;;;;;;14.68;100.00;100873.72;5114642;28;20410;-69
2024/04/06 05:29:53;;;;;;;2.80;1.20;;;;;;;14.70;100.00;100877.06;5113775;28;20423;-68
2024/04/06 05:32:21;;;;;;;1.10;0.80;;;;;;;14.77;100.00;100877.78;5106362;28;20407;-71
2024/04/06 05:34:51;;;;;;;2.27;2.07;;;;;;;14.83;100.00;100879.59;5113930;28;20395;-69
2024/04/06 05:37:20;;;;;;;1.40;0.90;;;;;;;14.94;100.00;100889.72;5106732;28;20444;-70
2024/04/06 05:39:46;;;;;;;1.97;0.97;;;;;;;15.02;100.00;100892.13;5111071;28;20962;-68
2024/04/06 05:42:14;;;;;;;3.03;1.73;;;;;;;15.10;100.00;100886.31;5108298;28;20442;-68
2024/04/06 05:44:43;;;;;;;3.63;2.00;;;;;;;15.20;100.00;100900.22;5114192;28;20396;-68
2024/04/06 05:47:11;;;;;;;1.90;1.70;;;;;;;15.32;100.00;100897.56;5111219;28;20405;-68
2024/04/06 05:49:38;;;;;;;3.20;1.50;;;;;;;15.33;100.00;100899.22;5112410;28;20491;-69
2024/04/06 05:52:07;;;;;;;1.77;1.30;;;;;;;15.28;100.00;100911.88;5111884;28;20429;-68
2024/04/06 05:54:34;;;;;;;1.20;0.97;;;;;;;15.11;100.00;100912.53;5111180;28;20485;-69
2024/04/06 05:57:03;;;;;;;1.80;1.63;;;;;;;14.99;100.00;100913.56;5111994;28;20417;-69
2024/04/06 05:59:30;;;;;;;2.10;1.40;;;;;;;15.04;100.00;100906.34;5113833;28;20953;-68
2024/04/06 06:01:59;;;;;;;3.47;1.70;;;;;;;14.91;100.00;100905.72;5111617;28;20570;-68
2024/04/06 06:04:26;;;;;;;2.87;1.57;;;;;;;15.00;100.00;100899.72;5108992;28;20957;-69
2024/04/06 06:06:54;;;;;;;1.37;1.00;;;;;;;15.08;100.00;100909.44;5112849;28;20432;-69
2024/04/06 06:09:22;;;;;;;2.03;1.30;;;;;;;15.19;100.00;100909.50;5112932;28;20448;-68
2024/04/06 06:11:50;;;;;;;4.10;2.23;;;;;;;15.26;100.00;100908.53;5110505;28;20419;-68
2024/04/06 06:14:17;;;;;;;2.03;1.47;;;;;;;15.37;100.00;100922.22;5112827;28;20503;-69
2024/04/06 06:16:45;;;;;;;1.10;0.83;;;;;;;15.38;100.00;100920.34;5112772;28;20446;-66
2024/04/06 06:19:13;;;;;;;2.13;1.67;;;;;;;15.63;99.96;100921.03;5105611;28;20459;-69
2024/04/06 06:21:41;;;;;;;2.00;1.87;;;;;;;15.65;98.92;100921.59;5110655;28;20435;-69
2024/04/06 06:24:08;;;;;;;2.17;1.43;;;;;;;15.68;97.93;100921.16;5109824;28;20515;-68
2024/04/06 06:26:36;;;;;;;4.10;2.00;;;;;;;15.79;97.12;100933.13;5092034;28;20414;-69
2024/04/06 06:29:03;;;;;;;1.87;1.27;;;;;;;15.85;96.22;100918.53;5111766;28;20445;-68
2024/04/06 06:31:31;;;;;;;4.37;2.17;;;;;;;15.93;96.25;100919.00;5112634;28;20521;-69
2024/04/06 06:33:58;;;;;;;1.57;1.37;;;;;;;16.14;94.23;100933.16;5113262;28;20511;-69
2024/04/06 06:36:27;;;;;;;2.13;1.87;;;;;;;16.20;94.03;100926.75;5110329;28;20407;-70
2024/04/06 06:38:55;;;;;;;1.57;0.80;;;;;;;16.36;93.29;100931.50;5111481;28;20428;-69
2024/04/06 06:41:23;;;;;;;1.83;1.53;;;;;;;16.54;92.40;100928.59;5112728;28;21970;-68
2024/04/06 06:43:50;;;;;;;2.80;1.27;;;;;;;16.72;92.29;100924.91;5112921;28;20424;-69
2024/04/06 06:46:17;;;;;;;1.97;1.43;;;;;;;16.71;92.53;100935.00;5112928;28;20824;-70
2024/04/06 06:48:44;;;;;;;2.73;0.90;;;;;;;16.76;91.46;100929.63;5109791;28;20408;-69
2024/04/06 06:51:12;;;;;;;1.43;1.33;;;;;;;16.64;91.81;100937.06;5111876;28;20472;-69
2024/04/06 06:53:40;;;;;;;1.73;1.10;;;;;;;16.74;90.74;100945.47;5108289;28;20407;-67
2024/04/06 06:56:08;;;;;;;1.50;1.17;;;;;;;16.76;89.39;100937.00;5107119;28;20403;-68
2024/04/06 06:58:36;;;;;;;5.33;1.47;;;;;;;16.86;90.14;100943.50;5111461;28;20410;-67
2024/04/06 07:01:04;;;;;;;1.80;1.40;;;;;;;17.05;89.42;100946.06;5111742;28;20450;-68
2024/04/06 07:03:31;;;;;;;1.57;1.00;;;;;;;17.15;88.59;100946.25;5106099;28;20551;-67
2024/04/06 07:05:59;;;;;;;1.40;0.90;;;;;;;17.14;88.83;100947.31;5108090;28;20464;-68
2024/04/06 07:08:26;;;;;;;1.77;0.80;;;;;;;17.12;87.71;100947.59;5109105;28;20403;-69
2024/04/06 07:10:55;;;;;;;1.67;1.03;;;;;;;17.30;86.15;100944.66;5106772;28;20444;-68
2024/04/06 07:13:22;;;;;;;1.83;1.50;;;;;;;17.43;86.70;100939.97;5109507;28;20399;-68
2024/04/06 07:15:50;;;;;;;1.17;0.70;;;;;;;17.55;87.21;100937.97;5098982;28;20922;-69
2024/04/06 07:18:17;;;;;;;1.30;0.80;;;;;;;17.80;85.46;100942.03;5110487;28;20428;-68
2024/04/06 07:20:48;;;;;;;4.60;2.20;;;;;;;18.00;83.25;100952.47;5109283;28;21091;-69
2024/04/06 07:23:15;;;;;;;1.10;0.70;;;;;;;18.12;81.99;100942.25;5108221;28;20397;-68
2024/04/06 07:25:44;;;;;;;3.53;1.07;;;;;;;18.03;82.34;100945.66;5110183;28;20427;-67
2024/04/06 07:28:12;;;;;;;1.30;0.97;;;;;;;17.89;83.46;100949.81;5101657;28;20421;-68
2024/04/06 07:30:40;;;;;;;4.33;1.60;;;;;;;17.97;82.45;100949.38;5111444;28;20950;-68
2024/04/06 07:33:07;;;;;;;1.60;1.50;;;;;;;18.08;81.66;100949.31;5100313;28;20927;-68
2024/04/06 07:35:34;;;;;;;2.37;1.00;;;;;;;18.34;80.48;100952.44;5111443;28;20786;-68
2024/04/06 07:38:02;;;;;;;1.47;1.20;;;;;;;18.49;78.61;100947.97;5106027;28;20425;-67
2024/04/06 07:40:29;;;;;;;5.83;1.67;;;;;;;18.68;78.65;100962.28;5107954;28;20444;-68
2024/04/06 07:42:57;;;;;;;4.40;1.03;;;;;;;18.92;76.00;100962.84;5111487;28;20799;-69
2024/04/06 07:45:26;;;;;;;5.93;1.20;;;;;;;18.86;76.87;100966.59;5108673;28;20573;-68
2024/04/06 07:47:53;;;;;;;1.10;0.73;;;;;;;18.86;76.62;100969.34;5107359;28;20428;-69
2024/04/06 07:50:21;;;;;;;1.47;0.83;;;;;;;18.96;76.08;100967.56;5107357;28;20445;-68
2024/04/06 07:52:49;;;;;;;2.80;0.83;;;;;;;19.12;75.97;100963.09;5110954;28;20833;-68
2024/04/06 07:55:17;;;;;;;1.30;0.83;;;;;;;19.16;75.72;100958.75;5108799;28;20416;-67
2024/04/06 07:57:44;;;;;;;2.07;1.33;;;;;;;19.22;75.60;100946.72;5109803;28;20455;-67
2024/04/06 08:00:14;;;;;;;2.07;1.20;;;;;;;19.37;73.95;100951.53;5104342;28;20426;-68
2024/04/06 08:02:43;;;;;;;3.00;0.70;;;;;;;19.34;73.82;100949.31;5106345;28;20467;-67
2024/04/06 08:05:12;;;;;;;1.10;0.70;;;;;;;19.24;74.12;100952.78;5109902;28;20787;-68
2024/04/06 08:07:39;;;;;;;1.67;0.93;;;;;;;19.46;73.67;100956.34;5106633;28;20414;-69
2024/04/06 08:10:15;;;;;;;4.27;1.10;;;;;;;19.39;74.15;100963.09;5115570;28;20462;-69
2024/04/06 08:12:43;;;;;;;1.50;0.80;;;;;;;19.57;72.83;100971.00;5105531;28;20436;-68
2024/04/06 08:15:11;;;;;;;1.93;1.10;;;;;;;19.64;71.80;100976.28;5108031;28;20424;-69
2024/04/06 08:17:40;;;;;;;1.00;0.60;;;;;;;19.86;70.76;100982.50;5102039;28;20460;-68
2024/04/06 08:20:10;;;;;;;2.23;1.27;;;;;;;19.96;70.85;100988.09;5100980;28;20526;-69
2024/04/06 08:22:38;;;;;;;1.10;0.60;;;;;;;20.22;68.47;101000.97;5112257;28;21001;-70
2024/04/06 08:25:09;;;;;;;1.40;1.00;;;;;;;20.49;68.70;101005.56;5110033;28;20919;-69
2024/04/06 08:27:37;;;;;;;2.20;1.37;;;;;;;20.30;67.61;101003.25;5109813;28;20797;-69
2024/04/06 08:30:06;;;;;;;1.30;0.97;;;;;;;20.26;69.39;100993.00;5109058;28;20795;-68
2024/04/06 08:32:36;;;;;;;1.00;0.60;;;;;;;20.38;68.75;100990.94;5115870;28;20501;-70
2024/04/06 08:35:04;;;;;;;1.77;1.20;;;;;;;20.57;67.38;101002.31;5113632;27;20403;-68
2024/04/06 08:37:33;;;;;;;1.20;0.77;;;;;;;20.52;66.82;100996.78;5108742;28;20397;-70
2024/04/06 08:40:00;;;;;;;1.47;0.97;;;;;;;20.34;68.12;101000.78;5109100;28;20503;-69
2024/04/06 08:42:30;;;;;;;1.23;0.80;;;;;;;20.30;69.36;101003.25;5110984;28;20435;-70
2024/04/06 08:44:58;;;;;;;1.17;0.87;;;;;;;20.56;68.25;101001.50;5113945;28;20420;-68
2024/04/06 08:47:28;;;;;;;1.20;0.80;;;;;;;20.67;68.26;101002.41;5110887;28;20908;-70
2024/04/06 08:49:57;;;;;;;1.63;0.73;;;;;;;20.62;68.29;101002.34;5108726;28;20438;-71
2024/04/06 08:52:24;;;;;;;4.10;1.20;;;;;;;20.26;67.78;100990.25;5114188;28;20456;-69
2024/04/06 08:54:53;;;;;;;1.73;1.30;;;;;;;20.22;69.82;100987.22;5110206;28;20512;-69
2024/04/06 08:57:20;;;;;;;3.40;1.83;;;;;;;20.06;69.58;100987.34;5110254;28;20825;-69
2024/04/06 08:59:49;;;;;;;1.43;0.80;;;;;;;20.26;70.60;100993.84;5111165;28;20432;-68
2024/04/06 09:02:16;;;;;;;1.27;0.90;;;;;;;20.63;68.60;100998.50;5107955;28;20460;-68
2024/04/06 09:04:44;;;;;;;1.23;0.90;;;;;;;20.69;68.11;100997.44;5111745;28;20442;-69
2024/04/06 09:07:11;;;;;;;3.33;0.77;;;;;;;20.92;67.24;101010.75;5108971;28;20407;-68
2024/04/06 09:09:39;;;;;;;1.90;1.37;;;;;;;21.27;65.42;101009.28;5107431;28;20930;-68
2024/04/06 09:12:08;;;;;;;2.20;1.30;;;;;;;21.60;64.32;101011.56;5107815;28;20423;-70
2024/04/06 09:14:41;;;;;;;1.90;0.90;;;;;;;21.31;64.96;100999.38;5124987;27;20403;-69
2024/04/06 09:17:08;;;;;;;2.33;1.50;;;;;;;21.22;65.94;100996.34;5110057;28;20889;-69
2024/04/06 09:19:36;;;;;;;1.63;1.23;;;;;;;21.57;64.23;101003.88;5106186;28;20756;-69
2024/04/06 09:22:03;;;;;;;2.00;0.67;;;;;;;21.30;65.07;101001.31;5112524;28;20534;-67
2024/04/06 09:24:32;;;;;;;1.20;0.73;;;;;;;21.04;65.09;101013.28;5113594;28;20435;-68
2024/04/06 09:27:09;;;;;;;2.67;1.00;;;;;;;21.09;64.83;101005.91;5113384;28;20511;-70
2024/04/06 09:29:37;;;;;;;3.53;1.17;;;;;;;21.17;64.81;101002.66;5108794;28;20424;-70
2024/04/06 09:32:10;;;;;;;1.00;0.60;;;;;;;21.13;65.35;101001.53;5113727;28;20500;-69
2024/04/06 09:34:43;;;;;;;1.20;0.90;;;;;;;21.09;65.19;100999.56;5112455;28;20424;-68
2024/04/06 09:37:11;;;;;;;1.40;1.10;;;;;;;20.82;65.89;100988.69;5109877;28;20447;-69
2024/04/06 09:39:40;;;;;;;1.30;1.20;;;;;;;20.87;66.96;100983.22;5106982;28;20427;-70
2024/04/06 09:42:10;;;;;;;1.50;1.10;;;;;;;21.20;64.91;100982.03;5108046;28;20466;-70
2024/04/06 09:44:39;;;;;;;1.50;0.93;;;;;;;21.38;65.41;100991.72;5112398;28;20431;-69
2024/04/06 09:47:09;;;;;;;1.30;0.87;;;;;;;21.75;64.41;100992.31;5108978;28;20435;-68
2024/04/06 09:49:39;;;;;;;1.83;1.07;;;;;;;21.84;62.05;101001.69;5108763;28;20428;-69
2024/04/06 09:52:06;;;;;;;1.13;0.73;;;;;;;21.62;62.16;100998.38;5114253;28;20444;-68
2024/04/06 09:54:34;;;;;;;1.43;1.13;;;;;;;21.72;62.30;100984.63;5110020;28;20427;-69
2024/04/06 09:57:01;;;;;;;2.70;0.90;;;;;;;21.76;61.09;100993.16;5109462;28;20435;-70
2024/04/06 09:59:31;;;;;;;1.20;0.70;;;;;;;21.86;60.28;100988.47;5110783;28;20460;-70
2024/04/06 10:01:58;;;;;;;1.90;1.50;;;;;;;21.97;60.04;101006.72;5112675;28;20468;-70
2024/04/06 10:04:27;;;;;;;2.10;0.73;;;;;;;21.61;59.74;101003.03;5109023;28;20485;-69
2024/04/06 10:06:55;;;;;;;2.37;1.00;;;;;;;21.77;60.44;101003.91;5110460;28;20442;-70
2024/04/06 10:09:29;;;;;;;4.20;1.63;;;;;;;21.86;59.89;100998.66;5109525;28;20432;-69
2024/04/06 10:12:00;;;;;;;1.30;0.63;;;;;;;22.09;58.99;100995.41;5112940;28;20452;-68
2024/04/06 10:14:30;;;;;;;3.03;1.13;;;;;;;21.93;59.01;101007.50;5112478;28;20458;-68
2024/04/06 10:17:07;;;;;;;1.10;0.80;;;;;;;22.12;58.92;100996.78;5112030;28;20428;-69
2024/04/06 10:19:36;;;;;;;2.67;1.10;;;;;;;22.37;57.61;100999.50;5101382;28;20512;-72
2024/04/06 10:22:03;;;;;;;1.13;0.90;;;;;;;22.39;56.60;101000.06;5092270;28;20530;-69
2024/04/06 10:24:31;;;;;;;1.27;0.80;;;;;;;22.53;56.14;100998.38;5103550;28;20421;-70
2024/04/06 10:26:58;;;;;;;1.50;0.90;;;;;;;22.74;55.64;100991.75;5111549;28;20433;-70
2024/04/06 10:29:28;;;;;;;1.10;0.80;;;;;;;23.11;54.94;100987.72;5111320;28;20725;-68
2024/04/06 10:31:56;;;;;;;1.10;0.80;;;;;;;22.67;53.81;100991.19;5095613;28;20455;-70
2024/04/06 10:34:26;;;;;;;2.47;0.90;;;;;;;22.75;53.34;100985.09;5114231;28;20429;-70
2024/04/06 10:36:53;;;;;;;1.20;0.80;;;;;;;23.05;53.31;100999.91;5109237;28;20431;-69
2024/04/06 10:39:22;;;;;;;1.30;0.90;;;;;;;23.16;52.41;100994.06;5112356;28;20531;-69
2024/04/06 10:41:50;;;;;;;1.30;0.90;;;;;;;23.32;51.25;100994.81;5113819;28;20593;-71
2024/04/06 10:44:18;;;;;;;1.60;0.97;;;;;;;23.49;51.04;100994.47;5109806;28;20498;-69
2024/04/06 10:46:45;;;;;;;1.53;0.97;;;;;;;23.42;50.14;100983.72;5110890;28;20420;-68
2024/04/06 10:49:15;;;;;;;1.70;1.17;;;;;;;23.60;50.23;100982.25;5110199;28;20422;-69
2024/04/06 10:51:42;;;;;;;1.33;0.80;;;;;;;23.01;49.50;100982.25;5115090;28;20817;-69
2024/04/06 10:54:11;;;;;;;1.60;0.73;;;;;;;23.25;49.92;100972.19;5109818;28;20416;-69
2024/04/06 10:56:38;;;;;;;1.20;0.60;;;;;;;23.15;51.08;100967.56;5109119;28;20429;-69
2024/04/06 10:59:06;;;;;;;1.37;0.60;;;;;;;23.50;50.86;100972.09;5113657;28;20417;-69
2024/04/06 11:01:35;;;;;;;1.43;0.80;;;;;;;23.81;49.22;100964.41;5120231;28;20516;-69
2024/04/06 11:04:04;;;;;;;1.77;0.80;;;;;;;24.35;47.70;100972.50;5118290;28;20551;-68
2024/04/06 11:06:32;;;;;;;1.00;0.50;;;;;;;24.78;46.86;100961.53;5111276;28;20417;-67
2024/04/06 11:09:01;;;;;;;1.50;0.80;;;;;;;24.72;45.34;100971.84;5113534;28;20435;-66
2024/04/06 11:11:29;;;;;;;1.53;0.83;;;;;;;24.86;46.97;100966.41;5110969;28;20535;-66
2024/04/06 11:13:57;;;;;;;1.10;0.70;;;;;;;25.05;45.88;100975.63;5106104;28;20425;-67
2024/04/06 11:16:26;;;;;;;1.20;0.60;;;;;;;24.69;45.35;100973.25;5110849;28;20417;-68
2024/04/06 11:18:55;;;;;;;1.10;0.60;;;;;;;24.31;45.35;100963.16;5110218;28;20492;-67
2024/04/06 11:21:22;;;;;;;1.17;0.70;;;;;;;24.44;44.54;100968.00;5107230;28;20445;-66
2024/04/06 11:23:51;;;;;;;1.00;0.50;;;;;;;24.65;45.20;100968.59;5126104;27;20814;-68
2024/04/06 11:26:20;;;;;;;3.23;1.20;;;;;;;24.98;44.93;100967.66;5095068;28;20509;-68